Loveland, Oklahoma
Current Conditions -  °F | °C
As of 2:53 AM on Monday 22 Dec 2014 (Local Time) from KFDR Reporting Station
Haze Haze  
Wind Chill: 38°   Ceiling: Unl
Heat Index: 42°   Visibility: 4mi
Dew Point: 40°   Wind: 6mph
Humidity: 92%   Direction: 80°E
Pressure: 29.5"   Gusts: NA
Location:  34.31°N, 98.77°W
Report Text: KFDR 220853Z AUTO 08005KT 4SM BR CLR 06/04 A2950 RMK AO2 SLP984 T00560044 56015
Loading
Personal Weather Stations






























Interactive Weather Map New forecast layout! Learn more

10-Day Weather Forecast

Advertisements
Track Severe Weather on mobile